createdAt,value
2018-11-02T00:00:24.342Z,12.17
2018-11-02T00:02:52.878Z,12.03
2018-11-02T00:05:21.434Z,13.10
2018-11-02T00:07:49.997Z,12.83
2018-11-02T00:10:18.543Z,12.83
2018-11-02T00:12:47.078Z,12.63
2018-11-02T00:15:15.620Z,12.83
2018-11-02T00:17:44.202Z,12.43
2018-11-02T00:20:12.811Z,13.03
2018-11-02T00:22:41.385Z,13.60
2018-11-02T00:25:09.878Z,12.80
2018-11-02T00:27:38.378Z,13.63
2018-11-02T00:30:06.945Z,13.50
2018-11-02T00:32:35.515Z,12.73
2018-11-02T00:35:04.153Z,12.93
2018-11-02T00:37:32.676Z,12.17
2018-11-02T00:40:01.147Z,13.27
2018-11-02T00:42:29.996Z,12.57
2018-11-02T00:44:58.542Z,14.13
2018-11-02T00:47:27.011Z,13.87
2018-11-02T00:49:55.511Z,14.03
2018-11-02T00:52:24.029Z,13.07
2018-11-02T00:54:52.562Z,13.93
2018-11-02T00:57:21.034Z,13.47
2018-11-02T00:59:49.603Z,12.97
2018-11-02T01:02:18.099Z,14.13
2018-11-02T01:04:46.629Z,13.87
2018-11-02T01:07:15.149Z,12.97
2018-11-02T01:09:43.669Z,14.17
2018-11-02T01:12:12.179Z,13.70
2018-11-02T01:14:40.711Z,12.73
2018-11-02T01:17:09.204Z,12.87
2018-11-02T01:19:37.736Z,12.70
2018-11-02T01:22:06.666Z,12.67
2018-11-02T01:24:35.167Z,12.77
2018-11-02T01:27:03.769Z,12.43
2018-11-02T01:29:32.263Z,12.70
2018-11-02T01:32:00.764Z,11.70
2018-11-02T01:34:29.331Z,10.73
2018-11-02T01:36:57.933Z,10.90
2018-11-02T01:39:26.457Z,10.33
2018-11-02T01:41:54.962Z,10.17
2018-11-02T01:44:23.479Z,10.20
2018-11-02T01:46:51.992Z,10.37
2018-11-02T01:49:20.563Z,11.70
2018-11-02T01:51:49.056Z,11.80
2018-11-02T01:54:17.638Z,12.03
2018-11-02T01:56:46.157Z,13.40
2018-11-02T01:59:14.685Z,13.53
2018-11-02T02:01:43.194Z,12.97
2018-11-02T02:04:11.743Z,14.27
2018-11-02T02:06:40.223Z,15.40
2018-11-02T02:09:10.511Z,18.07
2018-11-02T02:11:38.990Z,16.13
2018-11-02T02:14:08.016Z,15.00
2018-11-02T02:16:36.579Z,14.40
2018-11-02T02:19:05.532Z,15.13
2018-11-02T02:21:34.125Z,13.90
2018-11-02T02:24:02.747Z,14.27
2018-11-02T02:26:31.217Z,13.57
2018-11-02T02:28:59.744Z,13.20
2018-11-02T02:31:28.307Z,13.47
2018-11-02T02:33:56.886Z,13.70
2018-11-02T02:36:25.387Z,12.37
2018-11-02T02:38:54.006Z,13.47
2018-11-02T02:41:22.530Z,16.27
2018-11-02T02:43:51.112Z,13.77
2018-11-02T02:46:19.597Z,14.03
2018-11-02T02:48:48.140Z,16.57
2018-11-02T02:51:16.690Z,14.07
2018-11-02T02:53:45.233Z,16.37
2018-11-02T02:56:13.735Z,16.40
2018-11-02T02:58:42.351Z,15.20
2018-11-02T03:01:10.811Z,16.40
2018-11-02T03:03:39.305Z,15.60
2018-11-02T03:06:07.841Z,16.10
2018-11-02T03:08:36.419Z,16.33
2018-11-02T03:11:05.313Z,15.90
2018-11-02T03:13:33.709Z,15.10
2018-11-02T03:16:02.250Z,15.60
2018-11-02T03:18:30.808Z,16.60
2018-11-02T03:20:59.402Z,15.83
2018-11-02T03:23:27.915Z,17.03
2018-11-02T03:25:56.421Z,15.00
2018-11-02T03:28:24.949Z,14.47
2018-11-02T03:30:53.540Z,16.17
2018-11-02T03:33:22.134Z,13.60
2018-11-02T03:35:50.646Z,16.20
2018-11-02T03:38:19.266Z,15.17
2018-11-02T03:40:47.855Z,14.23
2018-11-02T03:43:16.386Z,14.83
2018-11-02T03:45:44.909Z,13.73
2018-11-02T03:48:13.395Z,15.23
2018-11-02T03:50:42.424Z,14.13
2018-11-02T03:53:10.913Z,13.80
2018-11-02T03:55:39.439Z,13.50
2018-11-02T03:58:07.909Z,12.40
2018-11-02T04:00:36.402Z,12.43
2018-11-02T04:03:06.069Z,11.77
2018-11-02T04:05:34.561Z,12.97
2018-11-02T04:08:03.092Z,12.60
2018-11-02T04:10:31.653Z,12.23
2018-11-02T04:13:00.156Z,11.27
2018-11-02T04:15:28.683Z,11.53
2018-11-02T04:17:57.140Z,11.47
2018-11-02T04:20:25.651Z,10.60
2018-11-02T04:22:54.131Z,12.17
2018-11-02T04:25:22.624Z,11.90
2018-11-02T04:27:51.086Z,10.90
2018-11-02T04:30:19.642Z,12.93
2018-11-02T04:32:48.150Z,13.40
2018-11-02T04:35:16.724Z,14.43
2018-11-02T04:37:45.215Z,16.07
2018-11-02T04:40:13.768Z,16.43
2018-11-02T04:42:42.210Z,16.27
2018-11-02T04:45:10.737Z,15.63
2018-11-02T04:47:39.302Z,16.33
2018-11-02T04:50:08.726Z,14.73
2018-11-02T04:52:37.206Z,14.80
2018-11-02T04:55:06.433Z,14.27
2018-11-02T04:57:34.881Z,14.70
2018-11-02T05:00:03.964Z,14.63
2018-11-02T05:02:32.426Z,14.23
2018-11-02T05:05:01.018Z,12.37
2018-11-02T05:07:29.471Z,10.43
2018-11-02T05:09:58.089Z,12.77
2018-11-02T05:12:26.475Z,12.30
2018-11-02T05:14:54.974Z,12.23
2018-11-02T05:17:23.405Z,12.03
2018-11-02T05:19:51.930Z,13.33
2018-11-02T05:22:21.960Z,15.00
2018-11-02T05:24:50.653Z,17.13
2018-11-02T05:27:19.143Z,17.63
2018-11-02T05:29:47.794Z,17.30
2018-11-02T05:32:16.495Z,18.47
2018-11-02T05:34:45.051Z,19.03
2018-11-02T05:37:13.543Z,16.47
2018-11-02T05:39:42.430Z,17.50
2018-11-02T05:42:10.798Z,17.90
2018-11-02T05:44:39.283Z,19.33
2018-11-02T05:47:07.764Z,18.67
2018-11-02T05:49:36.214Z,17.67
2018-11-02T05:52:04.777Z,16.83
2018-11-02T05:54:33.438Z,16.93
2018-11-02T05:57:01.913Z,17.27
2018-11-02T05:59:30.395Z,15.30
2018-11-02T06:01:58.831Z,16.47
2018-11-02T06:04:27.330Z,16.70
2018-11-02T06:06:55.802Z,16.50
2018-11-02T06:09:24.306Z,16.00
2018-11-02T06:11:52.783Z,17.57
2018-11-02T06:14:21.256Z,16.90
2018-11-02T06:16:49.843Z,16.37
2018-11-02T06:19:18.448Z,16.30
2018-11-02T06:21:46.952Z,16.33
2018-11-02T06:24:15.514Z,14.33
2018-11-02T06:26:43.955Z,14.67
2018-11-02T06:29:12.420Z,13.63
2018-11-02T06:31:40.906Z,14.63
2018-11-02T06:34:09.458Z,14.83
2018-11-02T06:36:37.991Z,14.57
2018-11-02T06:39:08.296Z,14.40
2018-11-02T06:41:36.830Z,13.83
2018-11-02T06:44:05.379Z,13.30
2018-11-02T06:46:33.837Z,12.23
2018-11-02T06:49:02.286Z,12.57
2018-11-02T06:51:30.849Z,13.07
2018-11-02T06:53:59.325Z,14.90
2018-11-02T06:56:27.762Z,13.57
2018-11-02T06:58:56.339Z,14.53
2018-11-02T07:01:24.782Z,15.20
2018-11-02T07:03:53.418Z,15.67
2018-11-02T07:06:21.884Z,14.67
2018-11-02T07:08:50.362Z,15.03
2018-11-02T07:11:18.838Z,15.50
2018-11-02T07:13:48.175Z,15.53
2018-11-02T07:16:16.615Z,16.30
2018-11-02T07:18:45.095Z,15.97
2018-11-02T07:21:14.430Z,14.30
2018-11-02T07:23:42.987Z,13.70
2018-11-02T07:26:11.432Z,14.20
2018-11-02T07:28:39.940Z,13.93
2018-11-02T07:31:08.399Z,12.03
2018-11-02T07:33:36.887Z,11.30
2018-11-02T07:36:05.463Z,11.67
2018-11-02T07:38:33.969Z,12.50
2018-11-02T07:41:02.519Z,14.50
2018-11-02T07:43:31.002Z,14.97
2018-11-02T07:45:59.476Z,14.00
2018-11-02T07:48:28.011Z,14.80
2018-11-02T07:50:56.491Z,14.70
2018-11-02T07:53:24.978Z,15.90
2018-11-02T07:55:53.473Z,14.27
2018-11-02T07:58:21.962Z,15.33
2018-11-02T08:00:50.416Z,13.53
2018-11-02T08:03:18.897Z,15.47
2018-11-02T08:05:47.354Z,16.47
2018-11-02T08:08:15.890Z,18.53
2018-11-02T08:10:44.378Z,22.70
2018-11-02T08:13:12.853Z,20.23
2018-11-02T08:15:41.302Z,17.83
2018-11-02T08:18:09.757Z,18.00
2018-11-02T08:20:38.215Z,18.17
2018-11-02T08:23:06.694Z,21.47
2018-11-02T08:25:35.120Z,15.27
2018-11-02T08:28:03.779Z,18.40
2018-11-02T08:30:32.239Z,16.43
2018-11-02T08:33:00.708Z,15.10
2018-11-02T08:35:29.184Z,15.17
2018-11-02T08:37:57.670Z,19.80
2018-11-02T08:40:26.161Z,19.27
2018-11-02T08:42:54.624Z,19.27
2018-11-02T08:45:23.050Z,20.30
2018-11-02T08:47:51.496Z,20.63
2018-11-02T08:50:19.928Z,21.67
2018-11-02T08:52:48.431Z,18.20
2018-11-02T08:55:16.883Z,21.27
2018-11-02T08:57:45.487Z,15.80
2018-11-02T09:00:14.165Z,14.10
2018-11-02T09:02:42.588Z,14.57
2018-11-02T09:05:11.133Z,15.40
2018-11-02T09:07:39.554Z,14.47
2018-11-02T09:10:09.948Z,15.73
2018-11-02T09:12:38.421Z,15.97
2018-11-02T09:15:06.970Z,14.13
2018-11-02T09:17:35.577Z,11.37
2018-11-02T09:20:04.233Z,9.83
2018-11-02T09:22:32.666Z,10.90
2018-11-02T09:25:01.294Z,9.87
2018-11-02T09:27:29.841Z,9.87
2018-11-02T09:29:58.273Z,9.20
2018-11-02T09:32:26.736Z,8.37
2018-11-02T09:34:55.261Z,8.60
2018-11-02T09:37:23.805Z,7.10
2018-11-02T09:39:52.250Z,5.73
2018-11-02T09:42:20.857Z,6.43
2018-11-02T09:44:49.406Z,5.97
2018-11-02T09:47:17.920Z,4.70
2018-11-02T09:49:46.395Z,3.87
2018-11-02T09:52:14.866Z,3.40
2018-11-02T09:54:43.335Z,3.47
2018-11-02T09:57:11.831Z,3.23
2018-11-02T09:59:40.369Z,3.90
2018-11-02T10:02:09.027Z,3.30
2018-11-02T10:04:37.377Z,3.17
2018-11-02T10:07:05.928Z,2.40
2018-11-02T10:09:34.421Z,3.80
2018-11-02T10:12:05.082Z,2.90
2018-11-02T10:14:33.598Z,3.10
2018-11-02T10:17:02.390Z,3.10
2018-11-02T10:19:30.973Z,3.53
2018-11-02T10:21:59.622Z,2.70
2018-11-02T10:24:28.366Z,1.67
2018-11-02T10:26:56.921Z,1.80
2018-11-02T10:29:25.578Z,1.13
2018-11-02T10:31:54.262Z,1.50
2018-11-02T10:34:23.050Z,1.60
2018-11-02T10:36:51.730Z,1.17
2018-11-02T10:39:20.238Z,1.60
2018-11-02T10:41:51.781Z,2.07
2018-11-02T10:44:26.444Z,1.80
2018-11-02T10:46:54.965Z,1.70
2018-11-02T10:49:23.501Z,1.70
2018-11-02T10:51:52.045Z,1.77
2018-11-02T10:54:20.617Z,1.57
2018-11-02T10:56:49.238Z,1.13
2018-11-02T10:59:17.739Z,1.50
2018-11-02T11:01:50.387Z,0.93
2018-11-02T11:04:19.205Z,1.20
2018-11-02T11:06:47.818Z,1.27
2018-11-02T11:09:16.368Z,1.30
2018-11-02T11:11:45.046Z,1.47
2018-11-02T11:14:13.475Z,1.70
2018-11-02T11:16:41.941Z,1.50
2018-11-02T11:19:11.034Z,1.87
2018-11-02T11:21:40.724Z,1.70
2018-11-02T11:24:09.300Z,1.83
2018-11-02T11:26:38.489Z,1.40
2018-11-02T11:29:07.215Z,1.60
2018-11-02T11:31:36.161Z,1.77
2018-11-02T11:34:05.574Z,1.97
2018-11-02T11:36:34.279Z,1.80
2018-11-02T11:39:02.998Z,1.73
2018-11-02T11:41:31.544Z,2.80
2018-11-02T11:44:00.051Z,2.10
2018-11-02T11:46:28.551Z,1.60
2018-11-02T11:48:57.177Z,1.80
2018-11-02T11:51:25.580Z,2.03
2018-11-02T11:53:54.101Z,1.70
2018-11-02T11:56:22.585Z,1.50
2018-11-02T11:58:51.153Z,1.53
2018-11-02T12:01:19.776Z,1.20
2018-11-02T12:03:48.329Z,1.00
2018-11-02T12:06:20.094Z,0.90
2018-11-02T12:08:49.566Z,1.10
2018-11-02T12:11:26.867Z,1.00
2018-11-02T12:13:55.423Z,1.00
2018-11-02T12:16:23.958Z,1.20
2018-11-02T12:18:52.497Z,1.03
2018-11-02T12:21:21.019Z,1.00
2018-11-02T12:23:49.566Z,1.10
2018-11-02T12:26:18.045Z,0.90
2018-11-02T12:28:46.635Z,1.30
2018-11-02T12:31:15.114Z,3.60
2018-11-02T12:33:43.821Z,1.50
2018-11-02T12:36:12.326Z,1.70
2018-11-02T12:38:40.915Z,1.40
2018-11-02T12:41:09.381Z,1.50
2018-11-02T12:43:38.408Z,2.80
2018-11-02T12:46:06.720Z,3.00
2018-11-02T12:48:35.383Z,1.90
2018-11-02T12:51:03.776Z,1.67
2018-11-02T12:53:32.252Z,2.20
2018-11-02T12:56:00.800Z,1.63
2018-11-02T12:58:29.247Z,1.33
2018-11-02T13:00:57.758Z,1.27
2018-11-02T13:03:26.226Z,0.90
2018-11-02T13:05:55.602Z,1.13
2018-11-02T13:08:24.071Z,1.50
2018-11-02T13:10:52.575Z,1.97
2018-11-02T13:13:21.030Z,1.97
2018-11-02T13:15:49.566Z,1.33
2018-11-02T13:18:19.833Z,1.70
2018-11-02T13:20:48.333Z,1.80
2018-11-02T13:23:16.818Z,2.17
2018-11-02T13:25:45.391Z,2.07
2018-11-02T13:28:13.820Z,1.80
2018-11-02T13:30:42.416Z,1.83
2018-11-02T13:33:10.875Z,1.60
2018-11-02T13:35:39.365Z,2.03
2018-11-02T13:38:07.871Z,2.67
2018-11-02T13:40:36.358Z,2.07
2018-11-02T13:43:04.977Z,2.10
2018-11-02T13:45:33.497Z,2.37
2018-11-02T13:48:02.025Z,2.20
2018-11-02T13:50:30.754Z,2.20
2018-11-02T13:52:59.161Z,2.70
2018-11-02T13:55:27.739Z,2.10
2018-11-02T13:57:56.215Z,2.25
2018-11-02T14:00:25.639Z,2.50
2018-11-02T14:02:54.174Z,2.10
2018-11-02T14:05:22.617Z,2.43
2018-11-02T14:07:51.140Z,2.57
2018-11-02T14:10:19.564Z,2.37
2018-11-02T14:12:48.049Z,2.13
2018-11-02T14:15:17.548Z,2.50
2018-11-02T14:17:46.222Z,2.70
2018-11-02T14:20:15.138Z,3.70
2018-11-02T14:22:43.621Z,3.03
2018-11-02T14:25:13.415Z,3.30
2018-11-02T14:27:42.121Z,6.60
2018-11-02T14:30:12.548Z,4.90
2018-11-02T14:32:41.002Z,4.00
2018-11-02T14:35:09.537Z,3.93
2018-11-02T14:37:38.051Z,3.20
2018-11-02T14:40:07.817Z,2.57
2018-11-02T14:42:36.926Z,3.10
2018-11-02T14:45:06.839Z,3.43
2018-11-02T14:47:35.295Z,2.60
2018-11-02T14:50:03.909Z,3.70
2018-11-02T14:52:32.403Z,3.50
2018-11-02T14:55:00.874Z,4.07
2018-11-02T14:57:29.363Z,3.80
2018-11-02T14:59:57.874Z,3.13
2018-11-02T15:02:26.342Z,3.27
2018-11-02T15:04:54.835Z,4.13
2018-11-02T15:07:23.314Z,4.00
2018-11-02T15:09:51.793Z,4.10
2018-11-02T15:12:20.257Z,3.60
2018-11-02T15:14:48.771Z,3.27
2018-11-02T15:17:17.231Z,3.40
2018-11-02T15:19:45.708Z,3.40
2018-11-02T15:22:14.134Z,2.93
2018-11-02T15:24:42.614Z,2.90
2018-11-02T15:27:11.066Z,2.87
2018-11-02T15:29:39.575Z,2.80
2018-11-02T15:32:08.038Z,3.00
2018-11-02T15:34:36.603Z,3.30
2018-11-02T15:37:05.065Z,3.07
2018-11-02T15:39:33.594Z,3.80
2018-11-02T15:42:02.141Z,3.37
2018-11-02T15:44:30.655Z,3.27
2018-11-02T15:46:59.064Z,3.67
2018-11-02T15:49:27.555Z,3.70
2018-11-02T15:51:56.105Z,3.20
2018-11-02T15:54:24.614Z,3.57
2018-11-02T15:56:53.071Z,3.50
2018-11-02T15:59:21.566Z,3.80
2018-11-02T16:01:50.031Z,4.47
2018-11-02T16:04:18.532Z,4.23
2018-11-02T16:06:47.010Z,4.03
2018-11-02T16:09:16.287Z,4.73
2018-11-02T16:11:45.656Z,4.50
2018-11-02T16:14:14.665Z,4.27
2018-11-02T16:16:43.084Z,4.73
2018-11-02T16:19:11.566Z,5.13
2018-11-02T16:21:40.082Z,6.07
2018-11-02T16:24:09.659Z,6.50
2018-11-02T16:26:38.116Z,6.13
2018-11-02T16:29:06.689Z,6.27
2018-11-02T16:31:35.227Z,5.00
2018-11-02T16:34:03.805Z,9.30
2018-11-02T16:36:32.251Z,8.93
2018-11-02T16:39:00.807Z,7.23
2018-11-02T16:41:29.262Z,6.27
2018-11-02T16:43:57.814Z,5.10
2018-11-02T16:46:26.277Z,4.80
2018-11-02T16:48:54.821Z,4.90
2018-11-02T16:51:23.377Z,3.80
2018-11-02T16:53:51.926Z,4.80
2018-11-02T16:56:22.007Z,6.07
2018-11-02T16:58:50.985Z,8.00
2018-11-02T17:01:19.478Z,9.17
2018-11-02T17:03:48.343Z,9.13
2018-11-02T17:06:17.634Z,9.70
2018-11-02T17:08:46.137Z,13.87
2018-11-02T17:11:14.645Z,12.17
2018-11-02T17:13:43.132Z,10.90
2018-11-02T17:16:11.666Z,9.97
2018-11-02T17:18:40.195Z,9.43
2018-11-02T17:21:08.718Z,9.67
2018-11-02T17:23:37.237Z,9.40
2018-11-02T17:26:06.102Z,7.80
2018-11-02T17:28:34.639Z,8.07
2018-11-02T17:31:03.102Z,7.27
2018-11-02T17:33:35.502Z,6.93
2018-11-02T17:36:04.010Z,4.73
2018-11-02T17:38:33.370Z,4.70
2018-11-02T17:41:01.868Z,4.60
2018-11-02T17:43:31.401Z,4.93
2018-11-02T17:46:00.095Z,6.63
2018-11-02T17:48:28.574Z,11.60
2018-11-02T17:50:58.009Z,10.77
2018-11-02T17:53:26.538Z,11.23
2018-11-02T17:55:55.197Z,14.30
2018-11-02T17:58:23.865Z,14.57
2018-11-02T18:00:52.359Z,14.67
2018-11-02T18:03:20.902Z,13.90
2018-11-02T18:05:49.727Z,13.47
2018-11-02T18:08:18.328Z,13.53
2018-11-02T18:10:46.693Z,12.17
2018-11-02T18:13:15.233Z,11.67
2018-11-02T18:15:43.906Z,10.70
2018-11-02T18:18:12.410Z,12.67
2018-11-02T18:20:40.873Z,11.40
2018-11-02T18:23:09.512Z,7.03
2018-11-02T18:25:38.006Z,7.37
2018-11-02T18:28:06.475Z,6.53
2018-11-02T18:30:34.953Z,6.27
2018-11-02T18:33:03.522Z,6.50
2018-11-02T18:35:32.091Z,5.93
2018-11-02T18:38:00.486Z,6.60
2018-11-02T18:40:28.939Z,6.23
2018-11-02T18:42:57.417Z,6.87
2018-11-02T18:45:25.902Z,7.90
2018-11-02T18:47:54.415Z,13.40
2018-11-02T18:50:23.241Z,12.47
2018-11-02T18:52:52.033Z,14.87
2018-11-02T18:55:20.911Z,12.07
2018-11-02T18:57:49.510Z,11.70
2018-11-02T19:00:18.291Z,10.37
2018-11-02T19:02:46.838Z,11.37
2018-11-02T19:05:16.537Z,11.30
2018-11-02T19:07:45.302Z,10.13
2018-11-02T19:10:13.821Z,11.03
2018-11-02T19:12:43.007Z,11.63
2018-11-02T19:15:17.806Z,9.67
2018-11-02T19:17:46.322Z,10.20
2018-11-02T19:20:15.160Z,9.50
2018-11-02T19:22:43.685Z,8.87
2018-11-02T19:25:13.413Z,8.13
2018-11-02T19:27:42.366Z,8.80
2018-11-02T19:30:12.043Z,8.47
2018-11-02T19:32:40.551Z,7.33
2018-11-02T19:35:09.985Z,7.23
2018-11-02T19:37:38.379Z,8.60
2018-11-02T19:40:09.023Z,7.17
2018-11-02T19:42:37.510Z,7.20
2018-11-02T19:45:06.279Z,7.13
2018-11-02T19:47:40.074Z,6.83
2018-11-02T19:50:10.212Z,6.70
2018-11-02T19:52:38.696Z,8.67
2018-11-02T19:55:07.880Z,9.17
2018-11-02T19:57:36.310Z,8.37
2018-11-02T20:00:05.675Z,8.67
2018-11-02T20:02:34.230Z,6.90
2018-11-02T20:05:02.778Z,6.10
2018-11-02T20:07:31.250Z,7.10
2018-11-02T20:09:59.757Z,8.20
2018-11-02T20:12:28.240Z,8.50
2018-11-02T20:14:56.771Z,8.33
2018-11-02T20:17:25.278Z,9.00
2018-11-02T20:19:53.808Z,10.50
2018-11-02T20:22:22.311Z,10.47
2018-11-02T20:24:50.824Z,10.80
2018-11-02T20:27:19.470Z,10.83
2018-11-02T20:29:47.981Z,9.10
2018-11-02T20:32:16.511Z,9.17
2018-11-02T20:34:45.040Z,9.70
2018-11-02T20:37:13.658Z,9.33
2018-11-02T20:39:42.360Z,9.90
2018-11-02T20:42:10.776Z,9.63
2018-11-02T20:44:39.457Z,9.00
2018-11-02T20:47:08.104Z,8.17
2018-11-02T20:49:36.616Z,8.13
2018-11-02T20:52:05.825Z,8.87
2018-11-02T20:54:34.349Z,7.03
2018-11-02T20:57:03.189Z,7.13
2018-11-02T20:59:31.726Z,7.17
2018-11-02T21:02:00.224Z,6.30
2018-11-02T21:04:28.925Z,5.80
2018-11-02T21:06:57.592Z,6.30
2018-11-02T21:09:26.218Z,7.27
2018-11-02T21:11:54.630Z,7.73
2018-11-02T21:14:23.303Z,7.40
2018-11-02T21:16:51.658Z,8.37
2018-11-02T21:19:20.179Z,8.17
2018-11-02T21:21:48.680Z,9.23
2018-11-02T21:24:17.151Z,8.97
2018-11-02T21:26:45.650Z,8.27
2018-11-02T21:29:14.202Z,8.80
2018-11-02T21:31:42.711Z,8.13
2018-11-02T21:34:11.267Z,8.73
2018-11-02T21:36:39.754Z,8.70
2018-11-02T21:39:10.552Z,8.93
2018-11-02T21:41:39.043Z,8.83
2018-11-02T21:44:07.606Z,9.33
2018-11-02T21:46:36.072Z,9.10
2018-11-02T21:49:04.773Z,9.10
2018-11-02T21:51:33.240Z,8.60
2018-11-02T21:54:01.746Z,7.47
2018-11-02T21:56:30.318Z,7.40
2018-11-02T21:58:58.778Z,6.97
2018-11-02T22:01:27.232Z,7.37
2018-11-02T22:03:55.779Z,7.20
2018-11-02T22:06:24.348Z,6.80
2018-11-02T22:08:52.909Z,7.40
2018-11-02T22:11:21.420Z,7.00
2018-11-02T22:13:49.922Z,6.80
2018-11-02T22:16:18.390Z,7.27
2018-11-02T22:18:46.980Z,6.77
2018-11-02T22:21:15.403Z,6.50
2018-11-02T22:23:43.939Z,7.23
2018-11-02T22:26:12.481Z,6.63
2018-11-02T22:28:41.089Z,6.90
2018-11-02T22:31:09.555Z,6.40
2018-11-02T22:33:38.106Z,7.97
2018-11-02T22:36:06.618Z,7.47
2018-11-02T22:38:35.141Z,7.10
2018-11-02T22:41:03.630Z,7.33
2018-11-02T22:43:32.151Z,7.13
2018-11-02T22:46:00.672Z,7.83
2018-11-02T22:48:29.250Z,6.67
2018-11-02T22:50:57.789Z,7.80
2018-11-02T22:53:26.318Z,7.07
2018-11-02T22:55:54.816Z,7.80
2018-11-02T22:58:23.352Z,8.33
2018-11-02T23:00:57.230Z,8.90
2018-11-02T23:03:25.766Z,8.60
2018-11-02T23:05:54.234Z,8.20
2018-11-02T23:08:22.779Z,8.47
2018-11-02T23:10:51.273Z,8.40
2018-11-02T23:13:19.866Z,8.50
2018-11-02T23:15:48.330Z,8.80
2018-11-02T23:18:17.478Z,8.43
2018-11-02T23:20:45.950Z,9.03
2018-11-02T23:23:14.455Z,8.53
2018-11-02T23:25:42.907Z,10.10
2018-11-02T23:28:11.416Z,9.43
2018-11-02T23:30:39.892Z,9.43
2018-11-02T23:33:08.389Z,9.60
2018-11-02T23:35:36.893Z,10.07
2018-11-02T23:38:05.518Z,10.20
2018-11-02T23:40:33.982Z,9.30
2018-11-02T23:43:02.474Z,9.47
2018-11-02T23:45:30.927Z,8.87
2018-11-02T23:48:04.837Z,8.87
2018-11-02T23:50:33.281Z,9.10
2018-11-02T23:53:01.759Z,9.17
2018-11-02T23:55:30.327Z,9.03
2018-11-02T23:57:58.841Z,8.77
